首页
METAR-TAF:

METAR-TAF

机场 :

大學公園市, 马里兰州, 美国

纬度: 38-58-50N, 经度: 076-55-20W, 海拔: 15米

当前天气观测

该预报发布于9分钟前的21:55 UTC
风速4节,风向西
温度 7°C
湿度 39%
气压 1000 hPa
能見度: 16.1公里
散云层高于6000英尺
多云层高于7000英尺
阴天层高于10000英尺

METAR: KCGS 162155Z AUTO 27004KT 10SM SCT060 BKN070 OVC100 07/M06 A2953 RMK AO1 T00651056

时间: 17:04 (22:04 UTC)


TAF: 丢失

超过4000个机场的气象观测和天气预报(METAR&TAF报告)。

可查询的气象台以黄色和红色小点在地图上表示。

将鼠标移到小点上方,可查看气象台名称。

然后点击查看天气观测和预报。

如需切换地图:点击带黑十字的绿色按钮放大地图;点击带横线的绿色按钮缩小地图;或者点击绿色箭头查看邻近地区的地图。


METAR-TAF: